Pagrindinis puslapis
METAR-TAF:

METAR-TAF

Oro uostai :

Ikaluitas, Nunavutas, Kanada

platuma: 63-45N, ilguma: 068-33W, Aukštis: 34 m

Dabartinis oras

Ataskaita buvo paskelbta 59 minutes, ne 05:00 UTC
Vėjas 12 kt iš Šiaurės Vakarų
Temperatūra -36°C
Drėgmė 66%
Slėgis 1005 hPa
Matomumas: 24.1 km
Mažai debesys ne aukštis 1200 ft
Mažai debesys ne aukštis 25000 ft
ledo kristalai

METAR: CYFB 230500Z 31012KT 15SM IC FEW012 FEW250 M36/M40 A2969 RMK SC1CI1 SLP061

Laikas: 00:59 (05:59 UTC)

Prognozė

Ataskaita buvo paskelbta 18 minutes, ne 05:41 UTC
Prognozė galioja nuo 23 metu 06 UTC su 24 metu 06 UTC
Vėjas 12 kt iš Šiaurės Vakarų
Matomumas: 10 km
Giedras dangus
Laikinai
nuo 23 metu 06 UTC su 23 metu 15 UTC
Matomumas: 8.0 km
Mažai debesys ne aukštis 4000 ft
ledo kristalai
Nuo 23 metu 1500 UTC
Vėjas 12 kt iš Šiaurės/Šiaurės Vakarų
Matomumas: 10 km
Mažai debesys ne aukštis 2000 ft
Išsisklaidę debesys ne aukštis 5000 ft

TAF: CYFB 230541Z 2306/2406 32012KT P6SM SKC TEMPO 2306/2315 5SM IC FEW040 FM231500 34012KT P6SM FEW020 SCT050 RMK NXT FCST BY 231200Z

Orai ataskaitas ir orų prognozės (METAR, TAF).

turimą stotys yra geltonos ir raudonos taškus žemėlapyje.

Perkelti pele per norėdami pamatyti stoties vardą.

Tada spustelėkite, norėdami matyti oro stebėjimo ir prognozės.

Norėdami pakeisti žemėlapį: spustelėkite ant žalios mygtukų su juodo kryžiaus žemyn,; žalią mygtuką su brūkšneliu, jei norite nutolinti; arba žalių rodyklių gretimoms žemėlapius.


METAR-TAF: